^^
Station Historical Data
Daily Summary for January 10, 2018 Units:  Both    English   Metric
« Previous Day
Next Day »
Daily Weekly Monthly Yearly Custom
  High: Low: Average:
Temperature: TemperatureC °F /  -17.8 °C -5.8 °F /  -21 °C -4.1 °F /  -20.1 °C
Dew Point: DewpointC °F /  -17.8 °C -6.8 °F /  -21.6 °C -4.9 °F /  -20.5 °C
Humidity: Humidity% 93% 93%
Wind Speed: WindSpeedKMHmph /  0km/h - 0mph /  0km/h
Wind Gust: WindSpeedGustKMHmph /  0km/h - -
Wind- - NW
Pressure: PressurehPa in /  0 hPa 1024.3 in /  34682.8 hPa -
Precipitation: 0.0 in /  0 mm    
Historical Graphs
 
 
Tabular Data for January 10, 2018
Time Temperature Dew Point Pressure Wind Wind Speed Wind Gust Humidity Rainfall Rate (Hourly) solar Conditions
TemperatureC °F /  -17.8 °C DewpointC °F /  -17.8 °C PressurehPain /  0hPa Calm     Humidity% HourlyPrecipMMin /  0mm SoftwareType W/m2 Conditions
02:15 -2.1 °F /  -18.9 °C -3.1 °F /  -19.5 °C 1024.9in /  34703.1hPa Calm   5.6mph /  9km/h 93% 0.0in /  0mm WeatherDisplay:10.37 W/m2 FEW
02:41 -2.1 °F /  -18.9 °C -3.1 °F /  -19.5 °C 1024.9in /  34703.1hPa Calm     93% 0.0in /  0mm WeatherDisplay:10.37 W/m2 FEW
03:07 -2.1 °F /  -18.9 °C -3.1 °F /  -19.5 °C 1024.9in /  34703.1hPa Calm     93% 0.0in /  0mm WeatherDisplay:10.37 W/m2 FEW
03:15 -2.1 °F /  -18.9 °C -3.1 °F /  -19.5 °C 1024.9in /  34703.1hPa SW 0.3mph /  0.5km/h 3.7mph /  6km/h 93% 0.0in /  0mm WeatherDisplay:10.37 W/m2 FEW
03:57 -2.1 °F /  -18.9 °C -3.1 °F /  -19.5 °C 1025.3in /  34716.7hPa Calm     93% 0.0in /  0mm WeatherDisplay:10.37 W/m2 FEW
04:07 -2.2 °F /  -19 °C -3.2 °F /  -19.6 °C 1025.3in /  34716.7hPa NNW 0.8mph /  1.3km/h 5.6mph /  9km/h 93% 0.0in /  0mm WeatherDisplay:10.37 W/m2 FEW
04:15 -2.2 °F /  -19 °C -3.1 °F /  -19.5 °C 1025.3in /  34716.7hPa Calm     94% 0.0in /  0mm WeatherDisplay:10.37 W/m2 FEW
04:25 -2.2 °F /  -19 °C -3.2 °F /  -19.6 °C 1025.3in /  34716.7hPa Calm     93% 0.0in /  0mm WeatherDisplay:10.37 W/m2 FEW
04:36 -2.2 °F /  -19 °C -3.2 °F /  -19.6 °C 1025.3in /  34716.7hPa NNW 1.4mph /  2.3km/h 5.6mph /  9km/h 93% 0.0in /  0mm WeatherDisplay:10.37 W/m2 FEW
04:57 -2.2 °F /  -19 °C -3.2 °F /  -19.6 °C 1025.3in /  34716.7hPa Calm     93% 0.0in /  0mm WeatherDisplay:10.37 W/m2 FEW
05:07 -2.2 °F /  -19 °C -3.2 °F /  -19.6 °C 1025.3in /  34716.7hPa Calm     93% 0.0in /  0mm WeatherDisplay:10.37 W/m2 FEW
05:14 -2.3 °F /  -19.1 °C -3.1 °F /  -19.5 °C 1025.3in /  34716.7hPa Calm     94% 0.0in /  0mm WeatherDisplay:10.37 W/m2 FEW
05:19 -2.3 °F /  -19.1 °C -3.1 °F /  -19.5 °C 1024.9in /  34703.1hPa Calm     94% 0.0in /  0mm WeatherDisplay:10.37 W/m2 FEW
05:47 -2.3 °F /  -19.1 °C -3.2 °F /  -19.6 °C 1025.3in /  34716.7hPa Calm     94% 0.0in /  0mm WeatherDisplay:10.37 W/m2 FEW
05:52 -2.3 °F /  -19.1 °C -3.2 °F /  -19.6 °C 1025.3in /  34716.7hPa Calm     94% 0.0in /  0mm WeatherDisplay:10.37 W/m2 FEW
05:54 -2.3 °F /  -19.1 °C -3.2 °F /  -19.6 °C 1025.3in /  34716.7hPa Calm     94% 0.0in /  0mm WeatherDisplay:10.37 W/m2 FEW
06:01 -2.4 °F /  -19.1 °C -3.4 °F /  -19.7 °C 1024.9in /  34703.1hPa Calm     93% 0.0in /  0mm WeatherDisplay:10.37 W/m2 FEW
06:03 -2.4 °F /  -19.1 °C -3.2 °F /  -19.6 °C 1025.3in /  34716.7hPa Calm     94% 0.0in /  0mm WeatherDisplay:10.37 W/m2 FEW
06:15 -2.4 °F /  -19.1 °C -3.4 °F /  -19.7 °C 1025.3in /  34716.7hPa Calm     93% 0.0in /  0mm WeatherDisplay:10.37 W/m2 FEW
06:20 -2.4 °F /  -19.1 °C -3.4 °F /  -19.7 °C 1025.3in /  34716.7hPa Calm     93% 0.0in /  0mm WeatherDisplay:10.37 W/m2 FEW
06:33 -2.4 °F /  -19.1 °C -3.4 °F /  -19.7 °C 1024.9in /  34703.1hPa Calm     93% 0.0in /  0mm WeatherDisplay:10.37 W/m2 FEW
06:38 -2.5 °F /  -19.2 °C -3.5 °F /  -19.7 °C 1024.9in /  34703.1hPa Calm     93% 0.0in /  0mm WeatherDisplay:10.37 W/m2 FEW
09:05 -3.4 °F /  -19.7 °C -4.2 °F /  -20.1 °C 1024.9in /  34703.1hPa Calm     94% 0.0in /  0mm WeatherDisplay:10.37 W/m2 FEW
09:42 -3.4 °F /  -19.7 °C -4.3 °F /  -20.2 °C 1025.3in /  34716.7hPa Calm     94% 0.0in /  0mm WeatherDisplay:10.37 W/m2 FEW
09:58 -3.4 °F /  -19.7 °C -4.3 °F /  -20.2 °C 1025.3in /  34716.7hPa Calm     94% 0.0in /  0mm WeatherDisplay:10.37 W/m2 FEW
10:13 -3.4 °F /  -19.7 °C -4.3 °F /  -20.2 °C 1025.3in /  34716.7hPa Calm     94% 0.0in /  0mm WeatherDisplay:10.37 W/m2 FEW
10:16 -3.4 °F /  -19.7 °C -4.3 °F /  -20.2 °C 1025.3in /  34716.7hPa Calm     94% 0.0in /  0mm WeatherDisplay:10.37 W/m2 FEW
10:45 -3.7 °F /  -19.8 °C -4.6 °F /  -20.3 °C 1025.3in /  34716.7hPa Calm     94% 0.0in /  0mm WeatherDisplay:10.37 W/m2 FEW
11:24 -3.6 °F /  -19.8 °C -4.4 °F /  -20.2 °C 1025.3in /  34716.7hPa Calm     94% 0.0in /  0mm WeatherDisplay:10.37 W/m2 FEW
12:35 -3.7 °F /  -19.8 °C -4.5 °F /  -20.3 °C 1024.9in /  34703.1hPa Calm     94% 0.0in /  0mm WeatherDisplay:10.37 W/m2 FEW
14:58 -3.3 °F /  -19.6 °C -4.2 °F /  -20.1 °C 1024.6in /  34693hPa Calm     94% 0.0in /  0mm WeatherDisplay:10.37 W/m2 FEW
15:27 -3.5 °F /  -19.7 °C -4.3 °F /  -20.2 °C 1024.6in /  34693hPa Calm     94% 0.0in /  0mm WeatherDisplay:10.37 W/m2 FEW
16:18 -3.8 °F /  -19.9 °C -4.6 °F /  -20.3 °C 1024.3in /  34682.8hPa Calm     94% 0.0in /  0mm WeatherDisplay:10.37 W/m2 FEW
16:19 -3.8 °F /  -19.9 °C -4.6 °F /  -20.3 °C 1024.3in /  34682.8hPa Calm     94% 0.0in /  0mm WeatherDisplay:10.37 W/m2 FEW
16:21 -3.8 °F /  -19.9 °C -4.7 °F /  -20.4 °C 1024.3in /  34682.8hPa Calm     94% 0.0in /  0mm WeatherDisplay:10.37 W/m2 FEW
16:22 -3.8 °F /  -19.9 °C -4.7 °F /  -20.4 °C 1024.3in /  34682.8hPa Calm     94% 0.0in /  0mm WeatherDisplay:10.37 W/m2 FEW
16:23 -3.8 °F /  -19.9 °C -4.7 °F /  -20.4 °C 1024.3in /  34682.8hPa Calm     94% 0.0in /  0mm WeatherDisplay:10.37 W/m2 FEW
16:26 -3.8 °F /  -19.9 °C -4.7 °F /  -20.4 °C 1024.3in /  34682.8hPa Calm     94% 0.0in /  0mm WeatherDisplay:10.37 W/m2 FEW
16:28 -3.8 °F /  -19.9 °C -4.7 °F /  -20.4 °C 1024.3in /  34682.8hPa Calm     94% 0.0in /  0mm WeatherDisplay:10.37 W/m2 FEW
16:31 -3.8 °F /  -19.9 °C -4.7 °F /  -20.4 °C 1024.3in /  34682.8hPa NW 0.3mph /  0.5km/h 1.9mph /  3.1km/h 94% 0.0in /  0mm WeatherDisplay:10.37 W/m2 FEW
16:40 -3.9 °F /  -19.9 °C -4.8 °F /  -20.4 °C 1024.3in /  34682.8hPa Calm     94% 0.0in /  0mm WeatherDisplay:10.37 W/m2 FEW
16:45 -3.9 °F /  -19.9 °C -4.8 °F /  -20.4 °C 1024.3in /  34682.8hPa Calm     94% 0.0in /  0mm WeatherDisplay:10.37 W/m2 FEW
16:50 -3.9 °F /  -19.9 °C -4.8 °F /  -20.4 °C 1024.3in /  34682.8hPa Calm     94% 0.0in /  0mm WeatherDisplay:10.37 W/m2 FEW
16:56 -4.0 °F /  -20 °C -4.8 °F /  -20.4 °C 1024.3in /  34682.8hPa Calm     94% 0.0in /  0mm WeatherDisplay:10.37 W/m2 FEW
17:01 -4.0 °F /  -20 °C -4.8 °F /  -20.4 °C 1024.6in /  34693hPa Calm     94% 0.0in /  0mm WeatherDisplay:10.37 W/m2 FEW
17:06 -4.0 °F /  -20 °C -4.8 °F /  -20.4 °C 1024.6in /  34693hPa Calm     94% 0.0in /  0mm WeatherDisplay:10.37 W/m2 FEW
17:11 -4.0 °F /  -20 °C -4.8 °F /  -20.4 °C 1024.6in /  34693hPa Calm     94% 0.0in /  0mm WeatherDisplay:10.37 W/m2 FEW
17:16 -4.0 °F /  -20 °C -4.8 °F /  -20.4 °C 1024.6in /  34693hPa Calm     94% 0.0in /  0mm WeatherDisplay:10.37 W/m2 FEW
17:21 -4.0 °F /  -20 °C -4.8 °F /  -20.4 °C 1024.6in /  34693hPa Calm     94% 0.0in /  0mm WeatherDisplay:10.37 W/m2 FEW
17:26 -4.1 °F /  -20.1 °C -4.9 °F /  -20.5 °C 1024.6in /  34693hPa Calm     94% 0.0in /  0mm WeatherDisplay:10.37 W/m2 FEW
17:32 -4.1 °F /  -20.1 °C -4.9 °F /  -20.5 °C 1024.6in /  34693hPa Calm     94% 0.0in /  0mm WeatherDisplay:10.37 W/m2 FEW
17:37 -4.2 °F /  -20.1 °C -5.0 °F /  -20.6 °C 1024.6in /  34693hPa Calm     94% 0.0in /  0mm WeatherDisplay:10.37 W/m2 FEW
17:42 -4.2 °F /  -20.1 °C -5.1 °F /  -20.6 °C 1024.6in /  34693hPa Calm     94% 0.0in /  0mm WeatherDisplay:10.37 W/m2 FEW
17:53 -4.2 °F /  -20.1 °C -5.1 °F /  -20.6 °C 1024.6in /  34693hPa Calm     94% 0.0in /  0mm WeatherDisplay:10.37 W/m2 FEW
17:58 -4.3 °F /  -20.2 °C -5.1 °F /  -20.6 °C 1024.6in /  34693hPa Calm     94% 0.0in /  0mm WeatherDisplay:10.37 W/m2 FEW
18:03 -4.3 °F /  -20.2 °C -5.2 °F /  -20.7 °C 1024.6in /  34693hPa Calm     94% 0.0in /  0mm WeatherDisplay:10.37 W/m2 FEW
18:08 -4.3 °F /  -20.2 °C -5.2 °F /  -20.7 °C 1024.6in /  34693hPa Calm     94% 0.0in /  0mm WeatherDisplay:10.37 W/m2 FEW
18:13 -4.4 °F /  -20.2 °C -5.2 °F /  -20.7 °C 1024.6in /  34693hPa Calm     94% 0.0in /  0mm WeatherDisplay:10.37 W/m2 FEW
18:18 -4.4 °F /  -20.2 °C -5.2 °F /  -20.7 °C 1024.3in /  34682.8hPa Calm     94% 0.0in /  0mm WeatherDisplay:10.37 W/m2 FEW
18:23 -4.4 °F /  -20.2 °C -5.3 °F /  -20.7 °C 1024.3in /  34682.8hPa Calm     94% 0.0in /  0mm WeatherDisplay:10.37 W/m2 FEW
18:28 -4.4 °F /  -20.2 °C -5.3 °F /  -20.7 °C 1024.6in /  34693hPa Calm     94% 0.0in /  0mm WeatherDisplay:10.37 W/m2 FEW
18:38 -4.5 °F /  -20.3 °C -5.3 °F /  -20.7 °C 1024.3in /  34682.8hPa Calm     94% 0.0in /  0mm WeatherDisplay:10.37 W/m2 FEW
18:43 -4.6 °F /  -20.3 °C -5.4 °F /  -20.8 °C 1024.3in /  34682.8hPa Calm     94% 0.0in /  0mm WeatherDisplay:10.37 W/m2 FEW
18:50 -4.6 °F /  -20.3 °C -5.4 °F /  -20.8 °C 1024.3in /  34682.8hPa Calm     94% 0.0in /  0mm WeatherDisplay:10.37 W/m2 FEW
18:55 -4.6 °F /  -20.3 °C -5.4 °F /  -20.8 °C 1024.3in /  34682.8hPa Calm     94% 0.0in /  0mm WeatherDisplay:10.37 W/m2 FEW
19:05 -4.6 °F /  -20.3 °C -5.4 °F /  -20.8 °C 1024.3in /  34682.8hPa NNW 1.3mph /  2.1km/h 5.6mph /  9km/h 94% 0.0in /  0mm WeatherDisplay:10.37 W/m2 FEW
19:10 -4.7 °F /  -20.4 °C -5.5 °F /  -20.8 °C 1024.6in /  34693hPa Calm     94% 0.0in /  0mm WeatherDisplay:10.37 W/m2 FEW
19:24 -4.7 °F /  -20.4 °C -5.5 °F /  -20.8 °C 1024.6in /  34693hPa NNW 0.3mph /  0.5km/h 4.8mph /  7.7km/h 94% 0.0in /  0mm WeatherDisplay:10.37 W/m2 FEW
19:29 -4.7 °F /  -20.4 °C -5.6 °F /  -20.9 °C 1024.3in /  34682.8hPa Calm     94% 0.0in /  0mm WeatherDisplay:10.37 W/m2 FEW
19:34 -4.7 °F /  -20.4 °C -5.6 °F /  -20.9 °C 1024.3in /  34682.8hPa Calm     94% 0.0in /  0mm WeatherDisplay:10.37 W/m2 FEW
19:39 -4.7 °F /  -20.4 °C -5.6 °F /  -20.9 °C 1024.3in /  34682.8hPa Calm     94% 0.0in /  0mm WeatherDisplay:10.37 W/m2 FEW
19:44 -4.7 °F /  -20.4 °C -5.5 °F /  -20.8 °C 1024.3in /  34682.8hPa Calm     94% 0.0in /  0mm WeatherDisplay:10.37 W/m2 FEW
19:49 -4.7 °F /  -20.4 °C -5.5 °F /  -20.8 °C 1024.6in /  34693hPa NNW 0.2mph /  0.3km/h 4.8mph /  7.7km/h 94% 0.0in /  0mm WeatherDisplay:10.37 W/m2 FEW
19:54 -4.7 °F /  -20.4 °C -5.5 °F /  -20.8 °C 1024.3in /  34682.8hPa Calm     94% 0.0in /  0mm WeatherDisplay:10.37 W/m2 FEW
19:59 -4.7 °F /  -20.4 °C -5.5 °F /  -20.8 °C 1024.3in /  34682.8hPa Calm     94% 0.0in /  0mm WeatherDisplay:10.37 W/m2 FEW
20:04 -4.6 °F /  -20.3 °C -5.4 °F /  -20.8 °C 1024.3in /  34682.8hPa Calm     94% 0.0in /  0mm WeatherDisplay:10.37 W/m2 FEW
20:09 -4.6 °F /  -20.3 °C -5.4 °F /  -20.8 °C 1024.3in /  34682.8hPa Calm     94% 0.0in /  0mm WeatherDisplay:10.37 W/m2 FEW
20:14 -4.6 °F /  -20.3 °C -5.4 °F /  -20.8 °C 1024.3in /  34682.8hPa Calm     94% 0.0in /  0mm WeatherDisplay:10.37 W/m2 FEW
20:19 -4.6 °F /  -20.3 °C -5.4 °F /  -20.8 °C 1024.3in /  34682.8hPa Calm     94% 0.0in /  0mm WeatherDisplay:10.37 W/m2 FEW
20:24 -4.6 °F /  -20.3 °C -5.4 °F /  -20.8 °C 1024.3in /  34682.8hPa Calm     94% 0.0in /  0mm WeatherDisplay:10.37 W/m2 FEW
20:29 -4.6 °F /  -20.3 °C -5.4 °F /  -20.8 °C 1024.3in /  34682.8hPa Calm     94% 0.0in /  0mm WeatherDisplay:10.37 W/m2 FEW
20:39 -4.6 °F /  -20.3 °C -5.4 °F /  -20.8 °C 1024.3in /  34682.8hPa Calm     94% 0.0in /  0mm WeatherDisplay:10.37 W/m2 FEW
20:44 -4.6 °F /  -20.3 °C -5.4 °F /  -20.8 °C 1024.3in /  34682.8hPa Calm     94% 0.0in /  0mm WeatherDisplay:10.37 W/m2 FEW
20:49 -4.7 °F /  -20.4 °C -5.5 °F /  -20.8 °C 1024.3in /  34682.8hPa Calm     94% 0.0in /  0mm WeatherDisplay:10.37 W/m2 FEW
20:54 -4.7 °F /  -20.4 °C -5.5 °F /  -20.8 °C 1024.6in /  34693hPa Calm     94% 0.0in /  0mm WeatherDisplay:10.37 W/m2 FEW
21:04 -4.8 °F /  -20.4 °C -5.6 °F /  -20.9 °C 1024.3in /  34682.8hPa Calm     94% 0.0in /  0mm WeatherDisplay:10.37 W/m2 FEW
21:09 -4.8 °F /  -20.4 °C -5.7 °F /  -20.9 °C 1024.6in /  34693hPa Calm     94% 0.0in /  0mm WeatherDisplay:10.37 W/m2 FEW
21:14 -4.9 °F /  -20.5 °C -5.8 °F /  -21 °C 1024.6in /  34693hPa Calm     94% 0.0in /  0mm WeatherDisplay:10.37 W/m2 FEW
21:19 -5.1 °F /  -20.6 °C -5.9 °F /  -21.1 °C 1024.6in /  34693hPa Calm     94% 0.0in /  0mm WeatherDisplay:10.37 W/m2 FEW
21:30 -5.2 °F /  -20.7 °C -6.0 °F /  -21.1 °C 1024.6in /  34693hPa Calm     94% 0.0in /  0mm WeatherDisplay:10.37 W/m2 FEW
21:35 -5.3 °F /  -20.7 °C -6.1 °F /  -21.2 °C 1024.6in /  34693hPa Calm     94% 0.0in /  0mm WeatherDisplay:10.37 W/m2 FEW
21:40 -5.3 °F /  -20.7 °C -6.1 °F /  -21.2 °C 1024.6in /  34693hPa Calm     94% 0.0in /  0mm WeatherDisplay:10.37 W/m2 FEW
21:48 -5.3 °F /  -20.7 °C -6.2 °F /  -21.2 °C 1024.6in /  34693hPa Calm     94% 0.0in /  0mm WeatherDisplay:10.37 W/m2 FEW
22:02 -5.3 °F /  -20.7 °C -6.2 °F /  -21.2 °C 1024.6in /  34693hPa Calm     94% 0.0in /  0mm WeatherDisplay:10.37 W/m2 FEW
22:14 -5.4 °F /  -20.8 °C -6.3 °F /  -21.3 °C 1024.6in /  34693hPa Calm     94% 0.0in /  0mm WeatherDisplay:10.37 W/m2 FEW
22:19 -5.4 °F /  -20.8 °C -6.3 °F /  -21.3 °C 1024.6in /  34693hPa Calm     94% 0.0in /  0mm WeatherDisplay:10.37 W/m2 FEW
22:24 -5.4 °F /  -20.8 °C -6.3 °F /  -21.3 °C 1024.6in /  34693hPa Calm     94% 0.0in /  0mm WeatherDisplay:10.37 W/m2 FEW
22:29 -5.5 °F /  -20.8 °C -6.3 °F /  -21.3 °C 1024.6in /  34693hPa Calm     94% 0.0in /  0mm WeatherDisplay:10.37 W/m2 FEW
22:34 -5.6 °F /  -20.9 °C -6.4 °F /  -21.3 °C 1024.6in /  34693hPa Calm     94% 0.0in /  0mm WeatherDisplay:10.37 W/m2 FEW
22:42 -5.6 °F /  -20.9 °C -6.4 °F /  -21.3 °C 1024.6in /  34693hPa Calm     94% 0.0in /  0mm WeatherDisplay:10.37 W/m2 FEW
22:47 -5.6 °F /  -20.9 °C -6.4 °F /  -21.3 °C 1024.6in /  34693hPa Calm     94% 0.0in /  0mm WeatherDisplay:10.37 W/m2 FEW
22:52 -5.7 °F /  -20.9 °C -6.5 °F /  -21.4 °C 1024.6in /  34693hPa Calm     94% 0.0in /  0mm WeatherDisplay:10.37 W/m2 FEW
22:59 -5.7 °F /  -20.9 °C -6.7 °F /  -21.5 °C 1024.6in /  34693hPa Calm     93% 0.0in /  0mm WeatherDisplay:10.37 W/m2 FEW
23:04 -5.7 °F /  -20.9 °C -6.7 °F /  -21.5 °C 1024.6in /  34693hPa Calm     93% 0.0in /  0mm WeatherDisplay:10.37 W/m2 FEW
23:10 -5.8 °F /  -21 °C -6.8 °F /  -21.6 °C 1024.6in /  34693hPa Calm     93% 0.0in /  0mm WeatherDisplay:10.37 W/m2 FEW
23:19 -5.8 °F /  -21 °C -6.8 °F /  -21.6 °C 1024.6in /  34693hPa Calm     93% 0.0in /  0mm WeatherDisplay:10.37 W/m2 FEW
23:27 -5.8 °F /  -21 °C -6.7 °F /  -21.5 °C 1024.6in /  34693hPa Calm     93% 0.0in /  0mm WeatherDisplay:10.37 W/m2 FEW
23:32 -5.8 °F /  -21 °C -6.7 °F /  -21.5 °C 1024.6in /  34693hPa Calm     93% 0.0in /  0mm WeatherDisplay:10.37 W/m2 FEW
23:37 -5.7 °F /  -20.9 °C -6.7 °F /  -21.5 °C 1024.6in /  34693hPa Calm     93% 0.0in /  0mm WeatherDisplay:10.37 W/m2 FEW
23:42 -5.7 °F /  -20.9 °C -6.7 °F /  -21.5 °C 1024.6in /  34693hPa Calm     93% 0.0in /  0mm WeatherDisplay:10.37 W/m2 FEW
23:49 -5.8 °F /  -21 °C -6.7 °F /  -21.5 °C 1024.6in /  34693hPa Calm     93% 0.0in /  0mm WeatherDisplay:10.37 W/m2 FEW
23:55 -5.8 °F /  -21 °C -6.8 °F /  -21.6 °C 1024.6in /  34693hPa Calm     93% 0.0in /  0mm WeatherDisplay:10.37 W/m2 FEW
Tuulensuunkaari, Veikkola, Suomi
Compliments of Weather Underground - 1.75 mb